sensor_id;sensor_type;location;lat;lon;timestamp;pressure;altitude;pressure_sealevel;temperature;humidity
14269;BME280;7218;51.480;7.006;2023-04-07T00:00:38;100340.00;;;7.68;100.00
14269;BME280;7218;51.480;7.006;2023-04-07T00:03:05;100346.09;;;7.64;100.00
14269;BME280;7218;51.480;7.006;2023-04-07T00:05:32;100343.50;;;7.65;100.00
14269;BME280;7218;51.480;7.006;2023-04-07T00:07:59;100341.78;;;7.64;100.00
14269;BME280;7218;51.480;7.006;2023-04-07T00:10:27;100347.00;;;7.61;100.00
14269;BME280;7218;51.480;7.006;2023-04-07T00:12:54;100346.97;;;7.64;100.00
14269;BME280;7218;51.480;7.006;2023-04-07T00:15:20;100340.06;;;7.62;100.00
14269;BME280;7218;51.480;7.006;2023-04-07T00:17:47;100323.53;;;7.76;100.00
14269;BME280;7218;51.480;7.006;2023-04-07T00:20:14;100339.13;;;7.75;100.00
14269;BME280;7218;51.480;7.006;2023-04-07T00:22:40;100338.28;;;7.71;100.00
14269;BME280;7218;51.480;7.006;2023-04-07T00:25:07;100345.16;;;7.74;100.00
14269;BME280;7218;51.480;7.006;2023-04-07T00:27:35;100338.25;;;7.74;100.00
14269;BME280;7218;51.480;7.006;2023-04-07T00:30:02;100339.97;;;7.72;100.00
14269;BME280;7218;51.480;7.006;2023-04-07T00:32:29;100340.88;;;7.71;100.00
14269;BME280;7218;51.480;7.006;2023-04-07T00:34:55;100328.72;;;7.75;100.00
14269;BME280;7218;51.480;7.006;2023-04-07T00:37:22;100328.75;;;7.67;100.00
14269;BME280;7218;51.480;7.006;2023-04-07T00:39:50;100332.97;;;7.84;100.00
14269;BME280;7218;51.480;7.006;2023-04-07T00:42:16;100326.13;;;7.75;100.00
14269;BME280;7218;51.480;7.006;2023-04-07T00:44:44;100328.56;;;7.96;100.00
14269;BME280;7218;51.480;7.006;2023-04-07T00:47:11;100333.84;;;7.86;100.00
14269;BME280;7218;51.480;7.006;2023-04-07T00:49:37;100322.63;;;7.77;100.00
14269;BME280;7218;51.480;7.006;2023-04-07T00:52:04;100326.97;;;7.78;100.00
14269;BME280;7218;51.480;7.006;2023-04-07T00:54:31;100320.97;;;7.72;100.00
14269;BME280;7218;51.480;7.006;2023-04-07T00:56:58;100327.94;;;7.62;100.00
14269;BME280;7218;51.480;7.006;2023-04-07T00:59:26;100324.44;;;7.69;100.00
14269;BME280;7218;51.480;7.006;2023-04-07T01:02:00;100317.56;;;7.67;100.00
14269;BME280;7218;51.480;7.006;2023-04-07T01:04:32;100322.66;;;7.74;100.00
14269;BME280;7218;51.480;7.006;2023-04-07T01:07:03;100322.75;;;7.65;100.00
14269;BME280;7218;51.480;7.006;2023-04-07T01:09:36;100319.28;;;7.63;100.00
14269;BME280;7218;51.480;7.006;2023-04-07T01:12:09;100321.03;;;7.58;100.00
14269;BME280;7218;51.480;7.006;2023-04-07T01:14:45;100324.53;;;7.54;100.00
14269;BME280;7218;51.480;7.006;2023-04-07T01:17:14;100319.31;;;7.60;100.00
14269;BME280;7218;51.480;7.006;2023-04-07T01:19:45;100314.97;;;7.67;100.00
14269;BME280;7218;51.480;7.006;2023-04-07T01:22:16;100318.38;;;7.69;100.00
14269;BME280;7218;51.480;7.006;2023-04-07T01:25:02;100316.63;;;7.72;100.00
14269;BME280;7218;51.480;7.006;2023-04-07T01:27:35;100314.88;;;7.76;100.00
14269;BME280;7218;51.480;7.006;2023-04-07T01:30:08;100318.53;;;7.43;100.00
14269;BME280;7218;51.480;7.006;2023-04-07T01:32:38;100323.78;;;7.39;100.00
14269;BME280;7218;51.480;7.006;2023-04-07T01:35:06;100317.50;;;7.71;100.00
14269;BME280;7218;51.480;7.006;2023-04-07T01:37:36;100315.81;;;7.66;100.00
14269;BME280;7218;51.480;7.006;2023-04-07T01:40:06;100318.50;;;7.52;100.00
14269;BME280;7218;51.480;7.006;2023-04-07T01:42:34;100325.38;;;7.61;100.00
14269;BME280;7218;51.480;7.006;2023-04-07T01:45:05;100328.13;;;7.33;100.00
14269;BME280;7218;51.480;7.006;2023-04-07T01:47:33;100322.97;;;7.29;100.00
14269;BME280;7218;51.480;7.006;2023-04-07T01:50:02;100319.41;;;7.45;100.00
14269;BME280;7218;51.480;7.006;2023-04-07T01:52:30;100324.47;;;7.65;100.00
14269;BME280;7218;51.480;7.006;2023-04-07T01:54:57;100314.84;;;7.81;100.00
14269;BME280;7218;51.480;7.006;2023-04-07T01:57:23;100311.38;;;7.80;100.00
14269;BME280;7218;51.480;7.006;2023-04-07T01:59:50;100312.13;;;7.93;100.00
14269;BME280;7218;51.480;7.006;2023-04-07T02:02:18;100309.50;;;8.02;100.00
14269;BME280;7218;51.480;7.006;2023-04-07T02:04:51;100308.53;;;8.09;100.00
14269;BME280;7218;51.480;7.006;2023-04-07T02:07:22;100305.25;;;7.90;100.00
14269;BME280;7218;51.480;7.006;2023-04-07T02:09:53;100314.72;;;7.94;100.00
14269;BME280;7218;51.480;7.006;2023-04-07T02:12:22;100311.22;;;8.01;100.00
14269;BME280;7218;51.480;7.006;2023-04-07T02:14:51;100313.81;;;8.01;100.00
14269;BME280;7218;51.480;7.006;2023-04-07T02:17:20;100306.66;;;8.26;100.00
14269;BME280;7218;51.480;7.006;2023-04-07T02:19:49;100310.06;;;8.34;100.00
14269;BME280;7218;51.480;7.006;2023-04-07T02:22:17;100310.94;;;8.35;100.00
14269;BME280;7218;51.480;7.006;2023-04-07T02:24:44;100316.09;;;8.39;100.00
14269;BME280;7218;51.480;7.006;2023-04-07T02:27:10;100314.34;;;8.40;100.00
14269;BME280;7218;51.480;7.006;2023-04-07T02:29:37;100310.97;;;8.27;100.00
14269;BME280;7218;51.480;7.006;2023-04-07T02:32:04;100317.88;;;8.36;100.00
14269;BME280;7218;51.480;7.006;2023-04-07T02:34:32;100311.81;;;8.32;100.00
14269;BME280;7218;51.480;7.006;2023-04-07T02:36:59;100314.34;;;8.40;100.00
14269;BME280;7218;51.480;7.006;2023-04-07T02:39:25;100313.44;;;8.45;100.00
14269;BME280;7218;51.480;7.006;2023-04-07T02:41:52;100317.72;;;8.48;100.00
14269;BME280;7218;51.480;7.006;2023-04-07T02:44:18;100308.22;;;8.45;100.00
14269;BME280;7218;51.480;7.006;2023-04-07T02:46:44;100308.25;;;8.42;100.00
14269;BME280;7218;51.480;7.006;2023-04-07T02:49:11;100314.25;;;8.49;100.00
14269;BME280;7218;51.480;7.006;2023-04-07T02:51:39;100311.69;;;8.44;100.00
14269;BME280;7218;51.480;7.006;2023-04-07T02:54:05;100319.50;;;8.46;100.00
14269;BME280;7218;51.480;7.006;2023-04-07T02:56:32;100320.25;;;8.55;100.00
14269;BME280;7218;51.480;7.006;2023-04-07T02:58:58;100320.16;;;8.63;100.00
14269;BME280;7218;51.480;7.006;2023-04-07T03:01:25;100312.41;;;8.61;100.00
14269;BME280;7218;51.480;7.006;2023-04-07T03:03:52;100316.69;;;8.66;100.00
14269;BME280;7218;51.480;7.006;2023-04-07T03:06:18;100323.63;;;8.67;100.00
14269;BME280;7218;51.480;7.006;2023-04-07T03:08:46;100321.75;;;8.76;100.00
14269;BME280;7218;51.480;7.006;2023-04-07T03:11:12;100327.94;;;8.64;100.00
14269;BME280;7218;51.480;7.006;2023-04-07T03:13:39;100324.44;;;8.67;100.00
14269;BME280;7218;51.480;7.006;2023-04-07T03:16:06;100321.84;;;8.69;100.00
14269;BME280;7218;51.480;7.006;2023-04-07T03:18:32;100323.69;;;8.59;100.00
14269;BME280;7218;51.480;7.006;2023-04-07T03:20:59;100322.66;;;8.72;100.00
14269;BME280;7218;51.480;7.006;2023-04-07T03:23:26;100323.63;;;8.67;100.00
14269;BME280;7218;51.480;7.006;2023-04-07T03:25:55;100321.84;;;8.67;100.00
14269;BME280;7218;51.480;7.006;2023-04-07T03:28:22;100327.09;;;8.62;100.00
14269;BME280;7218;51.480;7.006;2023-04-07T03:30:49;100330.59;;;8.58;100.00
14269;BME280;7218;51.480;7.006;2023-04-07T03:33:15;100321.13;;;8.54;100.00
14269;BME280;7218;51.480;7.006;2023-04-07T03:35:42;100327.19;;;8.56;100.00
14269;BME280;7218;51.480;7.006;2023-04-07T03:38:08;100325.34;;;8.64;100.00
14269;BME280;7218;51.480;7.006;2023-04-07T03:40:35;100325.34;;;8.64;100.00
14269;BME280;7218;51.480;7.006;2023-04-07T03:43:03;100319.28;;;8.64;100.00
14269;BME280;7218;51.480;7.006;2023-04-07T03:45:30;100327.84;;;8.74;100.00
14269;BME280;7218;51.480;7.006;2023-04-07T03:47:58;100331.34;;;8.71;100.00
14269;BME280;7218;51.480;7.006;2023-04-07T03:50:25;100327.84;;;8.75;100.00
14269;BME280;7218;51.480;7.006;2023-04-07T03:52:51;100331.41;;;8.67;100.00
14269;BME280;7218;51.480;7.006;2023-04-07T03:55:18;100328.88;;;8.60;100.00
14269;BME280;7218;51.480;7.006;2023-04-07T03:57:44;100326.22;;;8.63;100.00
14269;BME280;7218;51.480;7.006;2023-04-07T04:00:13;100329.63;;;8.72;100.00
14269;BME280;7218;51.480;7.006;2023-04-07T04:02:40;100334.94;;;8.59;100.00
14269;BME280;7218;51.480;7.006;2023-04-07T04:05:06;100336.66;;;8.59;100.00
14269;BME280;7218;51.480;7.006;2023-04-07T04:07:33;100336.63;;;8.62;100.00
14269;BME280;7218;51.480;7.006;2023-04-07T04:10:00;100339.22;;;8.65;100.00
14269;BME280;7218;51.480;7.006;2023-04-07T04:12:26;100340.84;;;8.75;100.00
14269;BME280;7218;51.480;7.006;2023-04-07T04:14:53;100338.25;;;8.72;100.00
14269;BME280;7218;51.480;7.006;2023-04-07T04:17:21;100341.00;;;8.61;100.00
14269;BME280;7218;51.480;7.006;2023-04-07T04:19:47;100340.91;;;8.68;100.00
14269;BME280;7218;51.480;7.006;2023-04-07T04:22:14;100351.34;;;8.64;100.00
14269;BME280;7218;51.480;7.006;2023-04-07T04:24:40;100342.69;;;8.62;100.00
14269;BME280;7218;51.480;7.006;2023-04-07T04:27:07;100347.94;;;8.59;100.00
14269;BME280;7218;51.480;7.006;2023-04-07T04:29:33;100351.38;;;8.61;100.00
14269;BME280;7218;51.480;7.006;2023-04-07T04:32:00;100354.91;;;8.56;100.00
14269;BME280;7218;51.480;7.006;2023-04-07T04:34:28;100361.00;;;8.52;100.00
14269;BME280;7218;51.480;7.006;2023-04-07T04:36:55;100358.44;;;8.50;100.00
14269;BME280;7218;51.480;7.006;2023-04-07T04:39:21;100360.13;;;8.54;100.00
14269;BME280;7218;51.480;7.006;2023-04-07T04:41:48;100360.22;;;8.45;100.00
14269;BME280;7218;51.480;7.006;2023-04-07T04:44:14;100361.06;;;8.46;100.00
14269;BME280;7218;51.480;7.006;2023-04-07T04:46:41;100368.81;;;8.47;100.00
14269;BME280;7218;51.480;7.006;2023-04-07T04:49:07;100371.50;;;8.40;100.00
14269;BME280;7218;51.480;7.006;2023-04-07T04:51:35;100365.50;;;8.36;100.00
14269;BME280;7218;51.480;7.006;2023-04-07T04:54:02;100366.28;;;8.43;100.00
14269;BME280;7218;51.480;7.006;2023-04-07T04:56:30;100372.31;;;8.46;100.00
14269;BME280;7218;51.480;7.006;2023-04-07T04:58:56;100373.97;;;8.56;100.00
14269;BME280;7218;51.480;7.006;2023-04-07T05:01:23;100376.56;;;8.55;100.00
14269;BME280;7218;51.480;7.006;2023-04-07T05:03:49;100377.50;;;8.48;100.00
14269;BME280;7218;51.480;7.006;2023-04-07T05:06:16;100373.16;;;8.48;100.00
14269;BME280;7218;51.480;7.006;2023-04-07T05:08:44;100381.91;;;8.40;100.00
14269;BME280;7218;51.480;7.006;2023-04-07T05:11:11;100375.84;;;8.41;100.00
14269;BME280;7218;51.480;7.006;2023-04-07T05:13:38;100389.69;;;8.41;100.00
14269;BME280;7218;51.480;7.006;2023-04-07T05:16:06;100381.94;;;8.37;100.00
14269;BME280;7218;51.480;7.006;2023-04-07T05:18:33;100382.72;;;9.87;100.00
14269;BME280;7218;51.480;7.006;2023-04-07T05:20:59;100399.06;;;8.59;100.00
14269;BME280;7218;51.480;7.006;2023-04-07T05:23:27;100396.53;;;8.48;100.00
14269;BME280;7218;51.480;7.006;2023-04-07T05:25:54;100400.84;;;8.52;100.00
14269;BME280;7218;51.480;7.006;2023-04-07T05:28:21;100400.84;;;8.52;100.00
14269;BME280;7218;51.480;7.006;2023-04-07T05:30:49;100403.63;;;8.28;100.00
14269;BME280;7218;51.480;7.006;2023-04-07T05:33:15;100402.78;;;8.31;100.00
14269;BME280;7218;51.480;7.006;2023-04-07T05:35:43;100405.25;;;8.44;100.00
14269;BME280;7218;51.480;7.006;2023-04-07T05:38:09;100401.75;;;8.48;100.00
14269;BME280;7218;51.480;7.006;2023-04-07T05:40:36;100409.53;;;8.50;100.00
14269;BME280;7218;51.480;7.006;2023-04-07T05:43:04;100415.50;;;8.59;100.00
14269;BME280;7218;51.480;7.006;2023-04-07T05:45:30;100407.06;;;8.29;100.00
14269;BME280;7218;51.480;7.006;2023-04-07T05:47:57;100408.72;;;8.45;100.00
14269;BME280;7218;51.480;7.006;2023-04-07T05:50:23;100419.09;;;8.43;100.00
14269;BME280;7218;51.480;7.006;2023-04-07T05:52:50;100419.94;;;8.48;100.00
14269;BME280;7218;51.480;7.006;2023-04-07T05:55:16;100411.22;;;8.54;100.00
14269;BME280;7218;51.480;7.006;2023-04-07T05:57:43;100420.81;;;8.47;100.00
14269;BME280;7218;51.480;7.006;2023-04-07T06:00:12;100422.53;;;8.51;100.00
14269;BME280;7218;51.480;7.006;2023-04-07T06:02:39;100421.66;;;8.49;100.00
14269;BME280;7218;51.480;7.006;2023-04-07T06:05:06;100421.72;;;8.43;100.00
14269;BME280;7218;51.480;7.006;2023-04-07T06:07:32;100439.97;;;8.33;100.00
14269;BME280;7218;51.480;7.006;2023-04-07T06:09:59;100433.03;;;8.36;100.00
14269;BME280;7218;51.480;7.006;2023-04-07T06:12:26;100430.41;;;8.41;100.00
14269;BME280;7218;51.480;7.006;2023-04-07T06:14:54;100439.03;;;8.43;100.00
14269;BME280;7218;51.480;7.006;2023-04-07T06:17:22;100441.53;;;8.56;100.00
14269;BME280;7218;51.480;7.006;2023-04-07T06:19:49;100438.94;;;8.52;100.00
14269;BME280;7218;51.480;7.006;2023-04-07T06:22:15;100442.38;;;8.58;100.00
14269;BME280;7218;51.480;7.006;2023-04-07T06:24:42;100448.44;;;8.57;100.00
14269;BME280;7218;51.480;7.006;2023-04-07T06:27:08;100444.09;;;8.58;100.00
14269;BME280;7218;51.480;7.006;2023-04-07T06:29:35;100445.91;;;8.50;100.00
14269;BME280;7218;51.480;7.006;2023-04-07T06:32:01;100441.47;;;8.66;100.00
14269;BME280;7218;51.480;7.006;2023-04-07T06:34:29;100445.69;;;8.76;100.00
14269;BME280;7218;51.480;7.006;2023-04-07T06:36:56;100437.84;;;8.79;100.00
14269;BME280;7218;51.480;7.006;2023-04-07T06:39:24;100450.91;;;8.73;100.00
14269;BME280;7218;51.480;7.006;2023-04-07T06:41:52;100444.69;;;8.89;100.00
14269;BME280;7218;51.480;7.006;2023-04-07T06:44:18;100452.59;;;8.80;100.00
14269;BME280;7218;51.480;7.006;2023-04-07T06:46:45;100452.63;;;8.74;100.00
14269;BME280;7218;51.480;7.006;2023-04-07T06:49:14;100459.53;;;8.78;100.00
14269;BME280;7218;51.480;7.006;2023-04-07T06:51:43;100456.91;;;8.79;100.00
14269;BME280;7218;51.480;7.006;2023-04-07T06:54:10;100457.78;;;8.81;100.00
14269;BME280;7218;51.480;7.006;2023-04-07T06:56:39;100469.81;;;8.88;100.00
14269;BME280;7218;51.480;7.006;2023-04-07T06:59:05;100461.13;;;8.94;100.00
14269;BME280;7218;51.480;7.006;2023-04-07T07:01:32;100470.75;;;8.83;100.00
14269;BME280;7218;51.480;7.006;2023-04-07T07:03:58;100465.53;;;8.86;100.00
14269;BME280;7218;51.480;7.006;2023-04-07T07:06:25;100463.84;;;8.77;100.00
14269;BME280;7218;51.480;7.006;2023-04-07T07:08:53;100472.56;;;8.75;100.00
14269;BME280;7218;51.480;7.006;2023-04-07T07:11:20;100466.38;;;8.88;100.00
14269;BME280;7218;51.480;7.006;2023-04-07T07:13:46;100466.31;;;8.94;100.00
14269;BME280;7218;51.480;7.006;2023-04-07T07:16:13;100474.97;;;8.94;100.00
14269;BME280;7218;51.480;7.006;2023-04-07T07:18:39;100468.88;;;8.97;100.00
14269;BME280;7218;51.480;7.006;2023-04-07T07:21:06;100481.91;;;8.94;100.00
14269;BME280;7218;51.480;7.006;2023-04-07T07:23:33;100479.94;;;9.17;100.00
14269;BME280;7218;51.480;7.006;2023-04-07T07:26:02;100475.75;;;9.04;100.00
14269;BME280;7218;51.480;7.006;2023-04-07T07:28:28;100486.06;;;9.12;100.00
14269;BME280;7218;51.480;7.006;2023-04-07T07:30:55;100482.38;;;9.32;100.00
14269;BME280;7218;51.480;7.006;2023-04-07T07:33:21;100488.38;;;9.40;100.00
14269;BME280;7218;51.480;7.006;2023-04-07T07:35:48;100484.91;;;9.37;100.00
14269;BME280;7218;51.480;7.006;2023-04-07T07:38:14;100497.97;;;9.34;100.00
14269;BME280;7218;51.480;7.006;2023-04-07T07:40:41;100495.38;;;9.34;100.00
14269;BME280;7218;51.480;7.006;2023-04-07T07:43:09;100486.63;;;9.41;100.00
14269;BME280;7218;51.480;7.006;2023-04-07T07:45:35;100498.81;;;9.37;100.00
14269;BME280;7218;51.480;7.006;2023-04-07T07:48:02;100503.19;;;9.32;100.00
14269;BME280;7218;51.480;7.006;2023-04-07T07:50:29;100505.63;;;9.49;100.00
14269;BME280;7218;51.480;7.006;2023-04-07T07:52:55;100502.97;;;9.54;100.00
14269;BME280;7218;51.480;7.006;2023-04-07T07:55:22;100498.50;;;9.62;100.00
14269;BME280;7218;51.480;7.006;2023-04-07T07:57:49;100498.44;;;9.69;100.00
14269;BME280;7218;51.480;7.006;2023-04-07T08:00:17;100507.53;;;9.32;100.00
14269;BME280;7218;51.480;7.006;2023-04-07T08:02:44;100505.78;;;9.32;100.00
14269;BME280;7218;51.480;7.006;2023-04-07T08:05:10;100510.94;;;9.40;100.00
14269;BME280;7218;51.480;7.006;2023-04-07T08:07:37;100516.66;;;9.71;100.00
14269;BME280;7218;51.480;7.006;2023-04-07T08:10:04;100519.97;;;9.82;100.00
14269;BME280;7218;51.480;7.006;2023-04-07T08:12:30;100523.44;;;9.84;100.00
14269;BME280;7218;51.480;7.006;2023-04-07T08:14:57;100522.81;;;9.64;100.00
14269;BME280;7218;51.480;7.006;2023-04-07T08:17:25;100522.69;;;9.74;100.00
14269;BME280;7218;51.480;7.006;2023-04-07T08:19:51;100533.97;;;9.73;100.00
14269;BME280;7218;51.480;7.006;2023-04-07T08:22:18;100532.97;;;9.83;100.00
14269;BME280;7218;51.480;7.006;2023-04-07T08:24:45;100534.03;;;9.70;100.00
14269;BME280;7218;51.480;7.006;2023-04-07T08:27:12;100531.31;;;9.79;100.00
14269;BME280;7218;51.480;7.006;2023-04-07T08:29:39;100535.69;;;9.76;100.00
14269;BME280;7218;51.480;7.006;2023-04-07T08:32:05;100543.50;;;9.74;100.00
14269;BME280;7218;51.480;7.006;2023-04-07T08:34:33;100539.94;;;9.81;100.00
14269;BME280;7218;51.480;7.006;2023-04-07T08:36:59;100537.31;;;9.83;100.00
14269;BME280;7218;51.480;7.006;2023-04-07T08:39:26;100540.81;;;9.82;100.00
14269;BME280;7218;51.480;7.006;2023-04-07T08:41:54;100539.22;;;9.70;100.00
14269;BME280;7218;51.480;7.006;2023-04-07T08:44:22;100547.75;;;9.83;100.00
14269;BME280;7218;51.480;7.006;2023-04-07T08:46:50;100544.50;;;9.63;100.00
14269;BME280;7218;51.480;7.006;2023-04-07T08:49:18;100549.59;;;9.75;100.00
14269;BME280;7218;51.480;7.006;2023-04-07T08:51:48;100556.66;;;9.64;100.00
14269;BME280;7218;51.480;7.006;2023-04-07T08:54:16;100543.50;;;9.76;100.00
14269;BME280;7218;51.480;7.006;2023-04-07T08:56:46;100544.31;;;9.79;100.00
14269;BME280;7218;51.480;7.006;2023-04-07T08:59:14;100551.22;;;9.83;100.00
14269;BME280;7218;51.480;7.006;2023-04-07T09:01:42;100557.34;;;9.81;100.00
14269;BME280;7218;51.480;7.006;2023-04-07T09:04:09;100555.56;;;9.81;100.00
14269;BME280;7218;51.480;7.006;2023-04-07T09:06:37;100560.88;;;9.72;100.00
14269;BME280;7218;51.480;7.006;2023-04-07T09:09:05;100565.22;;;9.73;100.00
14269;BME280;7218;51.480;7.006;2023-04-07T09:11:34;100567.81;;;9.75;100.00
14269;BME280;7218;51.480;7.006;2023-04-07T09:14:01;100572.38;;;9.56;100.00
14269;BME280;7218;51.480;7.006;2023-04-07T09:16:28;100576.56;;;9.68;100.00
14269;BME280;7218;51.480;7.006;2023-04-07T09:18:56;100571.28;;;9.74;100.00
14269;BME280;7218;51.480;7.006;2023-04-07T09:21:23;100573.78;;;9.83;100.00
14269;BME280;7218;51.480;7.006;2023-04-07T09:23:49;100573.00;;;9.76;100.00
14269;BME280;7218;51.480;7.006;2023-04-07T09:26:22;100572.03;;;9.85;100.00
14269;BME280;7218;51.480;7.006;2023-04-07T09:28:52;100575.56;;;9.81;100.00
14269;BME280;7218;51.480;7.006;2023-04-07T09:31:20;100574.75;;;9.76;100.00
14269;BME280;7218;51.480;7.006;2023-04-07T09:33:47;100573.94;;;9.71;100.00
14269;BME280;7218;51.480;7.006;2023-04-07T09:36:14;100577.19;;;9.91;100.00
14269;BME280;7218;51.480;7.006;2023-04-07T09:38:42;100572.69;;;10.02;100.00
14269;BME280;7218;51.480;7.006;2023-04-07T09:41:10;100577.25;;;9.85;100.00
14269;BME280;7218;51.480;7.006;2023-04-07T09:43:40;100576.44;;;9.80;100.00
14269;BME280;7218;51.480;7.006;2023-04-07T09:46:10;100573.84;;;9.80;100.00
14269;BME280;7218;51.480;7.006;2023-04-07T09:48:37;100580.78;;;9.81;100.00
14269;BME280;7218;51.480;7.006;2023-04-07T09:51:05;100580.81;;;9.76;100.00
14269;BME280;7218;51.480;7.006;2023-04-07T09:53:41;100584.59;;;9.49;100.00
14269;BME280;7218;51.480;7.006;2023-04-07T09:56:08;100593.22;;;9.51;100.00
14269;BME280;7218;51.480;7.006;2023-04-07T09:58:37;100589.72;;;9.56;100.00
14269;BME280;7218;51.480;7.006;2023-04-07T10:01:06;100593.16;;;9.61;100.00
14269;BME280;7218;51.480;7.006;2023-04-07T10:03:33;100584.44;;;9.62;100.00
14269;BME280;7218;51.480;7.006;2023-04-07T10:06:00;100599.13;;;9.69;100.00
14269;BME280;7218;51.480;7.006;2023-04-07T10:08:26;100581.16;;;9.44;100.00
14269;BME280;7218;51.480;7.006;2023-04-07T10:10:53;100588.16;;;9.38;100.00
14269;BME280;7218;51.480;7.006;2023-04-07T10:13:21;100590.56;;;9.59;100.00
14269;BME280;7218;51.480;7.006;2023-04-07T10:15:49;100594.78;;;9.71;100.00
14269;BME280;7218;51.480;7.006;2023-04-07T10:18:19;100603.34;;;9.80;100.00
14269;BME280;7218;51.480;7.006;2023-04-07T10:20:48;100595.66;;;9.68;100.00
14269;BME280;7218;51.480;7.006;2023-04-07T10:23:18;100598.16;;;9.79;100.00
14269;BME280;7218;51.480;7.006;2023-04-07T10:25:48;100597.44;;;9.62;100.00
14269;BME280;7218;51.480;7.006;2023-04-07T10:28:19;100604.38;;;9.66;100.00
14269;BME280;7218;51.480;7.006;2023-04-07T10:30:46;100607.84;;;9.65;100.00
14269;BME280;7218;51.480;7.006;2023-04-07T10:33:13;100607.75;;;9.72;100.00
14269;BME280;7218;51.480;7.006;2023-04-07T10:36:04;100612.91;;;9.80;100.00
14269;BME280;7218;51.480;7.006;2023-04-07T10:38:33;100603.47;;;9.70;100.00
14269;BME280;7218;51.480;7.006;2023-04-07T10:41:33;100612.56;;;10.10;100.00
14269;BME280;7218;51.480;7.006;2023-04-07T10:44:00;100609.22;;;9.99;100.00
14269;BME280;7218;51.480;7.006;2023-04-07T10:49:33;100620.38;;;10.07;100.00
14269;BME280;7218;51.480;7.006;2023-04-07T10:52:23;100617.84;;;10.03;100.00
14269;BME280;7218;51.480;7.006;2023-04-07T10:58:15;100619.63;;;9.99;100.00
14269;BME280;7218;51.480;7.006;2023-04-07T11:00:42;100625.06;;;9.81;100.00
14269;BME280;7218;51.480;7.006;2023-04-07T11:03:10;100624.91;;;9.93;100.00
14269;BME280;7218;51.480;7.006;2023-04-07T11:05:38;100615.56;;;9.75;100.00
14269;BME280;7218;51.480;7.006;2023-04-07T11:08:06;100625.16;;;9.69;100.00
14269;BME280;7218;51.480;7.006;2023-04-07T11:10:33;100626.78;;;9.80;100.00
14269;BME280;7218;51.480;7.006;2023-04-07T11:13:04;100634.56;;;9.85;100.00
14269;BME280;7218;51.480;7.006;2023-04-07T11:15:32;100626.78;;;9.80;100.00
14269;BME280;7218;51.480;7.006;2023-04-07T11:18:13;100626.63;;;9.96;100.00
14269;BME280;7218;51.480;7.006;2023-04-07T11:20:42;100623.03;;;10.06;100.00
14269;BME280;7218;51.480;7.006;2023-04-07T11:23:10;100628.47;;;9.84;100.00
14269;BME280;7218;51.480;7.006;2023-04-07T11:25:41;100630.00;;;10.04;100.00
14269;BME280;7218;51.480;7.006;2023-04-07T11:28:10;100630.75;;;10.13;100.00
14269;BME280;7218;51.480;7.006;2023-04-07T11:30:38;100631.50;;;10.26;100.00
14269;BME280;7218;51.480;7.006;2023-04-07T11:33:14;100632.34;;;10.26;100.00
14269;BME280;7218;51.480;7.006;2023-04-07T11:35:46;100637.56;;;10.26;100.00
14269;BME280;7218;51.480;7.006;2023-04-07T11:38:15;100646.38;;;10.13;100.00
14269;BME280;7218;51.480;7.006;2023-04-07T11:40:41;100642.09;;;10.09;100.00
14269;BME280;7218;51.480;7.006;2023-04-07T11:43:15;100641.59;;;9.75;100.00
14269;BME280;7218;51.480;7.006;2023-04-07T11:45:42;100646.72;;;9.83;100.00
14269;BME280;7218;51.480;7.006;2023-04-07T11:50:53;100650.13;;;9.88;100.00
14269;BME280;7218;51.480;7.006;2023-04-07T11:53:29;100648.50;;;9.76;100.00
14269;BME280;7218;51.480;7.006;2023-04-07T11:56:06;100651.88;;;9.89;100.00
14269;BME280;7218;51.480;7.006;2023-04-07T11:58:34;100660.66;;;9.79;100.00
14269;BME280;7218;51.480;7.006;2023-04-07T12:01:04;100653.66;;;9.84;100.00
14269;BME280;7218;51.480;7.006;2023-04-07T12:03:34;100655.28;;;9.94;100.00
14269;BME280;7218;51.480;7.006;2023-04-07T12:06:00;100663.22;;;9.83;100.00
14269;BME280;7218;51.480;7.006;2023-04-07T12:08:39;100669.06;;;10.02;100.00
14269;BME280;7218;51.480;7.006;2023-04-07T12:11:07;100665.56;;;10.06;100.00
14269;BME280;7218;51.480;7.006;2023-04-07T12:13:34;100665.81;;;9.85;100.00
14269;BME280;7218;51.480;7.006;2023-04-07T12:16:01;100667.44;;;9.92;100.00
14269;BME280;7218;51.480;7.006;2023-04-07T12:18:29;100677.75;;;10.04;100.00
14269;BME280;7218;51.480;7.006;2023-04-07T12:20:55;100668.31;;;9.96;100.00
14269;BME280;7218;51.480;7.006;2023-04-07T12:23:23;100674.09;;;10.23;100.00
14269;BME280;7218;51.480;7.006;2023-04-07T12:25:52;100672.28;;;10.28;100.00
14269;BME280;7218;51.480;7.006;2023-04-07T12:28:18;100677.38;;;10.38;100.00
14269;BME280;7218;51.480;7.006;2023-04-07T12:30:45;100684.22;;;10.49;100.00
14269;BME280;7218;51.480;7.006;2023-04-07T12:33:11;100687.88;;;10.34;100.00
14269;BME280;7218;51.480;7.006;2023-04-07T12:35:38;100684.19;;;10.51;100.00
14269;BME280;7218;51.480;7.006;2023-04-07T12:38:04;100685.81;;;10.61;100.00
14269;BME280;7218;51.480;7.006;2023-04-07T12:40:31;100687.44;;;10.68;100.00
14269;BME280;7218;51.480;7.006;2023-04-07T12:43:00;100686.50;;;10.72;100.00
14269;BME280;7218;51.480;7.006;2023-04-07T12:45:27;100691.03;;;10.61;100.00
14269;BME280;7218;51.480;7.006;2023-04-07T12:47:54;100694.66;;;10.48;100.00
14269;BME280;7218;51.480;7.006;2023-04-07T12:50:21;100690.25;;;10.53;100.00
14269;BME280;7218;51.480;7.006;2023-04-07T12:52:49;100699.81;;;10.52;100.00
14269;BME280;7218;51.480;7.006;2023-04-07T12:55:16;100702.47;;;10.49;100.00
14269;BME280;7218;51.480;7.006;2023-04-07T12:57:42;100703.50;;;10.34;100.00
14269;BME280;7218;51.480;7.006;2023-04-07T13:00:11;100708.78;;;10.28;100.00
14269;BME280;7218;51.480;7.006;2023-04-07T13:02:38;100708.91;;;10.16;100.00
14269;BME280;7218;51.480;7.006;2023-04-07T13:05:06;100709.75;;;10.18;100.00
14269;BME280;7218;51.480;7.006;2023-04-07T13:07:32;100712.44;;;10.09;100.00
14269;BME280;7218;51.480;7.006;2023-04-07T13:10:00;100708.09;;;10.07;100.00
14269;BME280;7218;51.480;7.006;2023-04-07T13:12:27;100707.34;;;9.99;100.00